createdAt,value
2018-12-19T00:02:04.474Z,98534.83
2018-12-19T00:04:32.522Z,98532.62
2018-12-19T00:07:00.683Z,98534.12
2018-12-19T00:09:28.859Z,98530.77
2018-12-19T00:11:56.943Z,98535.16
2018-12-19T00:14:25.146Z,98539.22
2018-12-19T00:16:53.174Z,98540.28
2018-12-19T00:19:21.259Z,98530.87
2018-12-19T00:21:49.334Z,98527.11
2018-12-19T00:24:17.410Z,98523.86
2018-12-19T00:26:45.595Z,98511.56
2018-12-19T00:29:13.712Z,98506.91
2018-12-19T00:31:41.818Z,98503.67
2018-12-19T00:34:09.891Z,98501.20
2018-12-19T00:36:38.091Z,98500.02
2018-12-19T00:39:09.781Z,98495.34
2018-12-19T00:41:38.297Z,98487.83
2018-12-19T00:44:06.363Z,98482.13
2018-12-19T00:46:34.474Z,98482.89
2018-12-19T00:49:02.614Z,98482.45
2018-12-19T00:51:30.715Z,98478.44
2018-12-19T00:53:58.942Z,98475.98
2018-12-19T00:56:27.314Z,98478.75
2018-12-19T00:58:55.418Z,98479.48
2018-12-19T01:01:23.462Z,98478.14
2018-12-19T01:03:52.108Z,98469.55
2018-12-19T01:06:20.770Z,98468.67
2018-12-19T01:08:48.851Z,98473.42
2018-12-19T01:11:16.923Z,98474.80
2018-12-19T01:13:45.282Z,98475.33
2018-12-19T01:16:13.479Z,98474.87
2018-12-19T01:18:41.963Z,98473.16
2018-12-19T01:21:10.042Z,98473.97
2018-12-19T01:23:38.095Z,98477.79
2018-12-19T01:26:06.339Z,98472.25
2018-12-19T01:28:34.398Z,98469.80
2018-12-19T01:31:02.491Z,98475.98
2018-12-19T01:33:30.608Z,98482.73
2018-12-19T01:35:59.075Z,98484.70
2018-12-19T01:38:27.146Z,98489.28
2018-12-19T01:40:55.222Z,98484.56
2018-12-19T01:43:23.271Z,98484.59
2018-12-19T01:45:51.567Z,98483.06
2018-12-19T01:48:19.623Z,98484.42
2018-12-19T01:50:47.684Z,98478.44
2018-12-19T01:53:15.779Z,98488.94
2018-12-19T01:55:44.050Z,98482.00
2018-12-19T01:58:12.636Z,98475.95
2018-12-19T02:00:40.706Z,98474.48
2018-12-19T02:03:08.742Z,98467.43
2018-12-19T02:05:36.815Z,98461.84
2018-12-19T02:08:04.899Z,98465.56
2018-12-19T02:10:33.087Z,98455.20
2018-12-19T02:13:01.258Z,98451.45
2018-12-19T02:15:29.339Z,98440.02
2018-12-19T02:17:57.411Z,98446.55
2018-12-19T02:20:25.478Z,98449.58
2018-12-19T02:22:53.554Z,98453.34
2018-12-19T02:25:21.598Z,98452.06
2018-12-19T02:27:49.698Z,98454.79
2018-12-19T02:30:17.771Z,98454.36
2018-12-19T02:32:45.847Z,98456.20
2018-12-19T02:35:14.123Z,98451.89
2018-12-19T02:37:42.159Z,98447.55
2018-12-19T02:40:10.251Z,98452.95
2018-12-19T02:42:38.323Z,98442.12
2018-12-19T02:45:06.747Z,98451.63
2018-12-19T02:47:35.695Z,98454.77
2018-12-19T02:50:05.799Z,98439.92
2018-12-19T02:52:33.879Z,98440.56
2018-12-19T02:55:01.948Z,98443.39
2018-12-19T02:57:30.023Z,98442.00
2018-12-19T02:59:58.098Z,98439.06
2018-12-19T03:02:26.165Z,98429.66
2018-12-19T03:04:54.385Z,98434.64
2018-12-19T03:07:22.431Z,98437.09
2018-12-19T03:09:50.480Z,98431.55
2018-12-19T03:12:19.066Z,98424.23
2018-12-19T03:14:47.138Z,98425.75
2018-12-19T03:17:15.166Z,98437.19
2018-12-19T03:19:43.279Z,98427.76
2018-12-19T03:22:11.410Z,98419.23
2018-12-19T03:24:39.486Z,98416.84
2018-12-19T03:27:07.555Z,98416.33
2018-12-19T03:29:35.639Z,98424.23
2018-12-19T03:32:03.736Z,98416.87
2018-12-19T03:34:31.998Z,98413.27
2018-12-19T03:37:00.060Z,98407.75
2018-12-19T03:39:28.132Z,98412.86
2018-12-19T03:41:56.429Z,98402.92
2018-12-19T03:44:24.467Z,98410.67
2018-12-19T03:46:52.570Z,98425.52
2018-12-19T03:49:20.847Z,98421.31
2018-12-19T03:51:49.284Z,98411.28
2018-12-19T03:54:17.445Z,98408.34
2018-12-19T03:56:46.107Z,98416.22
2018-12-19T03:59:14.259Z,98410.20
2018-12-19T04:01:42.331Z,98418.40
2018-12-19T04:04:10.586Z,98420.47
2018-12-19T04:06:38.631Z,98426.42
2018-12-19T04:09:06.962Z,98424.44
2018-12-19T04:11:35.231Z,98427.45
2018-12-19T04:14:03.307Z,98437.11
2018-12-19T04:16:31.354Z,98433.80
2018-12-19T04:18:59.654Z,98430.31
2018-12-19T04:21:27.707Z,98435.28
2018-12-19T04:23:55.897Z,98429.86
2018-12-19T04:26:24.076Z,98434.43
2018-12-19T04:28:52.142Z,98438.32
2018-12-19T04:31:20.222Z,98434.59
2018-12-19T04:33:48.396Z,98434.03
2018-12-19T04:36:16.648Z,98442.05
2018-12-19T04:38:45.104Z,98435.14
2018-12-19T04:41:13.318Z,98430.64
2018-12-19T04:43:41.365Z,98425.61
2018-12-19T04:46:09.536Z,98416.55
2018-12-19T04:48:37.639Z,98413.06
2018-12-19T04:51:05.684Z,98411.13
2018-12-19T04:53:33.831Z,98422.95
2018-12-19T04:56:02.007Z,98422.13
2018-12-19T04:58:30.031Z,98410.80
2018-12-19T05:00:58.222Z,98408.83
2018-12-19T05:03:26.372Z,98409.44
2018-12-19T05:05:54.610Z,98401.67
2018-12-19T05:08:22.922Z,98413.81
2018-12-19T05:10:51.006Z,98409.36
2018-12-19T05:13:19.160Z,98406.20
2018-12-19T05:15:47.338Z,98404.50
2018-12-19T05:18:15.511Z,98413.00
2018-12-19T05:20:43.588Z,98404.89
2018-12-19T05:23:11.659Z,98406.52
2018-12-19T05:25:39.751Z,98414.14
2018-12-19T05:28:07.906Z,98410.89
2018-12-19T05:30:35.975Z,98409.38
2018-12-19T05:33:04.118Z,98406.43
2018-12-19T05:35:32.223Z,98410.45
2018-12-19T05:38:00.266Z,98416.28
2018-12-19T05:40:28.467Z,98409.77
2018-12-19T05:42:56.558Z,98413.13
2018-12-19T05:45:24.619Z,98409.36
2018-12-19T05:47:52.735Z,98412.28
2018-12-19T05:50:21.726Z,98411.52
2018-12-19T05:52:49.824Z,98414.70
2018-12-19T05:55:17.862Z,98410.36
2018-12-19T05:57:46.003Z,98410.22
2018-12-19T06:00:14.344Z,98401.73
2018-12-19T06:02:42.495Z,98403.14
2018-12-19T06:05:10.599Z,98416.04
2018-12-19T06:07:38.754Z,98408.70
2018-12-19T06:10:07.171Z,98415.27
2018-12-19T06:12:35.230Z,98414.15
2018-12-19T06:15:04.226Z,98410.99
2018-12-19T06:17:32.272Z,98408.38
2018-12-19T06:20:00.811Z,98410.53
2018-12-19T06:22:28.961Z,98411.06
2018-12-19T06:24:57.003Z,98415.77
2018-12-19T06:27:25.529Z,98419.97
2018-12-19T06:29:54.196Z,98420.27
2018-12-19T06:32:22.263Z,98434.50
2018-12-19T06:34:50.334Z,98428.89
2018-12-19T06:37:18.406Z,98438.28
2018-12-19T06:39:46.524Z,98435.16
2018-12-19T06:42:14.560Z,98439.34
2018-12-19T06:44:42.828Z,98437.74
2018-12-19T06:47:10.901Z,98437.89
2018-12-19T06:49:39.039Z,98431.09
2018-12-19T06:52:07.125Z,98426.30
2018-12-19T06:54:35.191Z,98438.19
2018-12-19T06:57:03.252Z,98435.33
2018-12-19T06:59:31.303Z,98424.37
2018-12-19T07:01:59.430Z,98421.78
2018-12-19T07:04:27.920Z,98420.66
2018-12-19T07:06:56.553Z,98421.58
2018-12-19T07:09:24.707Z,98425.34
2018-12-19T07:11:52.754Z,98431.20
2018-12-19T07:14:20.911Z,98439.27
2018-12-19T07:16:48.984Z,98432.45
2018-12-19T07:19:17.072Z,98433.66
2018-12-19T07:21:45.107Z,98446.42
2018-12-19T07:24:13.279Z,98444.89
2018-12-19T07:26:41.326Z,98453.70
2018-12-19T07:29:09.527Z,98447.05
2018-12-19T07:31:37.606Z,98447.53
2018-12-19T07:34:05.667Z,98448.86
2018-12-19T07:36:33.743Z,98455.76
2018-12-19T07:39:01.798Z,98453.81
2018-12-19T07:41:29.883Z,98459.00
2018-12-19T07:43:58.022Z,98461.47
2018-12-19T07:46:26.118Z,98472.25
2018-12-19T07:48:54.219Z,98467.02
2018-12-19T07:51:22.303Z,98471.95
2018-12-19T07:53:50.378Z,98467.31
2018-12-19T07:56:22.988Z,98462.72
2018-12-19T07:58:51.131Z,98464.28
2018-12-19T08:01:19.291Z,98463.88
2018-12-19T08:03:47.672Z,98459.92
2018-12-19T08:06:15.756Z,98467.77
2018-12-19T08:08:43.919Z,98473.52
2018-12-19T08:11:11.992Z,98474.16
2018-12-19T08:13:40.055Z,98483.70
2018-12-19T08:16:08.173Z,98481.25
2018-12-19T08:18:36.191Z,98486.59
2018-12-19T08:21:04.274Z,98496.68
2018-12-19T08:23:32.458Z,98492.16
2018-12-19T08:26:00.702Z,98494.39
2018-12-19T08:28:28.926Z,98497.89
2018-12-19T08:30:57.013Z,98497.55
2018-12-19T08:33:25.069Z,98498.27
2018-12-19T08:35:53.152Z,98501.59
2018-12-19T08:38:21.470Z,98500.37
2018-12-19T08:40:49.966Z,98500.25
2018-12-19T08:43:18.038Z,98498.50
2018-12-19T08:45:46.871Z,98494.42
2018-12-19T08:48:14.967Z,98501.17
2018-12-19T08:50:43.218Z,98489.17
2018-12-19T08:53:11.367Z,98495.98
2018-12-19T08:55:39.519Z,98497.95
2018-12-19T08:58:07.667Z,98497.69
2018-12-19T09:00:37.599Z,98495.18
2018-12-19T09:03:05.786Z,98496.84
2018-12-19T09:05:39.999Z,98499.47
2018-12-19T09:08:08.068Z,98493.09
2018-12-19T09:10:36.902Z,98496.66
2018-12-19T09:13:05.002Z,98499.41
2018-12-19T09:15:34.990Z,98505.13
2018-12-19T09:18:03.043Z,98505.77
2018-12-19T09:20:31.090Z,98509.27
2018-12-19T09:22:59.276Z,98512.55
2018-12-19T09:25:27.380Z,98515.48
2018-12-19T09:27:55.487Z,98513.89
2018-12-19T09:30:23.580Z,98518.85
2018-12-19T09:32:52.641Z,98521.95
2018-12-19T09:35:20.963Z,98521.83
2018-12-19T09:37:48.999Z,98524.36
2018-12-19T09:40:18.118Z,98514.63
2018-12-19T09:42:46.275Z,98523.59
2018-12-19T09:45:14.564Z,98521.30
2018-12-19T09:47:43.211Z,98524.28
2018-12-19T09:50:11.295Z,98520.96
2018-12-19T09:52:39.364Z,98522.86
2018-12-19T09:55:07.559Z,98526.11
2018-12-19T09:57:36.631Z,98523.44
2018-12-19T10:00:10.278Z,98526.01
2018-12-19T10:02:39.782Z,98527.25
2018-12-19T10:05:08.136Z,98522.45
2018-12-19T10:07:36.220Z,98516.17
2018-12-19T10:10:04.922Z,98514.72
2018-12-19T10:12:33.126Z,98512.77
2018-12-19T10:15:01.212Z,98512.19
2018-12-19T10:17:29.391Z,98499.91
2018-12-19T10:19:57.567Z,98502.48
2018-12-19T10:22:27.619Z,98508.02
2018-12-19T10:24:57.764Z,98504.34
2018-12-19T10:27:25.830Z,98504.05
2018-12-19T10:29:53.887Z,98498.80
2018-12-19T10:32:21.972Z,98492.00
2018-12-19T10:34:50.127Z,98483.89
2018-12-19T10:37:18.653Z,98485.55
2018-12-19T10:39:47.300Z,98490.02
2018-12-19T10:42:15.410Z,98490.69
2018-12-19T10:44:43.463Z,98490.22
2018-12-19T10:47:11.563Z,98486.09
2018-12-19T10:49:39.639Z,98487.32
2018-12-19T10:52:07.756Z,98469.11
2018-12-19T10:54:35.994Z,98470.11
2018-12-19T10:57:04.183Z,98463.58
2018-12-19T10:59:32.459Z,98460.89
2018-12-19T11:02:00.596Z,98460.17
2018-12-19T11:04:28.664Z,98452.30
2018-12-19T11:06:56.789Z,98447.03
2018-12-19T11:09:24.970Z,98437.92
2018-12-19T11:11:53.064Z,98437.34
2018-12-19T11:14:21.215Z,98444.87
2018-12-19T11:16:49.403Z,98444.47
2018-12-19T11:19:17.506Z,98450.20
2018-12-19T11:21:45.819Z,98446.26
2018-12-19T11:24:13.991Z,98447.34
2018-12-19T11:26:42.367Z,98446.84
2018-12-19T11:29:10.452Z,98446.92
2018-12-19T11:31:38.638Z,98439.05
2018-12-19T11:34:06.710Z,98434.10
2018-12-19T11:36:34.779Z,98434.66
2018-12-19T11:39:03.363Z,98436.88
2018-12-19T11:41:31.439Z,98435.14
2018-12-19T11:43:59.511Z,98429.95
2018-12-19T11:46:27.591Z,98435.53
2018-12-19T11:48:55.624Z,98430.80
2018-12-19T11:51:23.941Z,98428.16
2018-12-19T11:53:52.023Z,98419.81
2018-12-19T11:56:20.250Z,98420.45
2018-12-19T11:58:48.311Z,98418.33
2018-12-19T12:01:16.426Z,98412.74
2018-12-19T12:03:44.462Z,98406.77
2018-12-19T12:06:12.535Z,98401.37
2018-12-19T12:08:40.600Z,98400.69
2018-12-19T12:11:08.898Z,98407.77
2018-12-19T12:13:37.079Z,98402.73
2018-12-19T12:16:05.359Z,98398.83
2018-12-19T12:18:33.408Z,98400.99
2018-12-19T12:21:01.481Z,98396.62
2018-12-19T12:23:29.574Z,98392.16
2018-12-19T12:25:57.743Z,98382.91
2018-12-19T12:28:25.790Z,98377.50
2018-12-19T12:30:53.888Z,98375.52
2018-12-19T12:33:22.958Z,98381.30
2018-12-19T12:35:51.383Z,98376.93
2018-12-19T12:38:19.459Z,98387.34
2018-12-19T12:40:47.527Z,98380.31
2018-12-19T12:43:15.554Z,98379.80
2018-12-19T12:45:43.639Z,98375.17
2018-12-19T12:48:11.720Z,98368.14
2018-12-19T12:50:39.790Z,98368.89
2018-12-19T12:53:07.931Z,98363.34
2018-12-19T12:55:35.995Z,98362.43
2018-12-19T12:58:04.074Z,98358.77
2018-12-19T13:00:32.132Z,98355.64
2018-12-19T13:03:00.583Z,98348.53
2018-12-19T13:05:28.650Z,98348.45
2018-12-19T13:07:56.744Z,98351.56
2018-12-19T13:10:24.778Z,98345.44
2018-12-19T13:12:52.922Z,98335.25
2018-12-19T13:15:22.850Z,98337.02
2018-12-19T13:17:51.590Z,98339.20
2018-12-19T13:20:19.661Z,98334.57
2018-12-19T13:22:47.791Z,98334.70
2018-12-19T13:25:15.850Z,98337.77
2018-12-19T13:27:43.931Z,98331.17
2018-12-19T13:30:11.983Z,98335.48
2018-12-19T13:32:40.031Z,98326.23
2018-12-19T13:35:08.203Z,98327.94
2018-12-19T13:37:36.321Z,98326.34
2018-12-19T13:40:05.511Z,98320.91
2018-12-19T13:42:33.595Z,98309.88
2018-12-19T13:45:01.671Z,98303.53
2018-12-19T13:47:29.707Z,98299.98
2018-12-19T13:49:57.763Z,98295.66
2018-12-19T13:52:25.982Z,98287.53
2018-12-19T13:54:54.038Z,98287.09
2018-12-19T13:57:22.098Z,98278.64
2018-12-19T13:59:50.160Z,98273.50
2018-12-19T14:02:18.219Z,98272.15
2018-12-19T14:04:46.789Z,98272.78
2018-12-19T14:07:15.066Z,98276.19
2018-12-19T14:09:43.119Z,98281.36
2018-12-19T14:12:12.386Z,98290.53
2018-12-19T14:14:40.879Z,98303.22
2018-12-19T14:17:08.954Z,98315.52
2018-12-19T14:19:37.187Z,98318.45
2018-12-19T14:22:05.300Z,98317.34
2018-12-19T14:24:33.342Z,98321.23
2018-12-19T14:27:01.382Z,98320.53
2018-12-19T14:29:29.476Z,98326.97
2018-12-19T14:31:57.522Z,98324.52
2018-12-19T14:34:25.603Z,98327.58
2018-12-19T14:36:53.686Z,98324.31
2018-12-19T14:39:21.860Z,98331.44
2018-12-19T14:41:50.048Z,98337.97
2018-12-19T14:44:18.206Z,98335.89
2018-12-19T14:46:46.367Z,98335.41
2018-12-19T14:49:14.479Z,98337.75
2018-12-19T14:51:42.601Z,98331.42
2018-12-19T14:54:10.710Z,98322.88
2018-12-19T14:56:38.871Z,98317.78
2018-12-19T14:59:06.945Z,98321.09
2018-12-19T15:01:35.005Z,98325.52
2018-12-19T15:04:03.136Z,98319.67
2018-12-19T15:06:31.232Z,98321.06
2018-12-19T15:08:59.256Z,98324.95
2018-12-19T15:11:27.311Z,98319.91
2018-12-19T15:13:55.407Z,98313.89
2018-12-19T15:16:23.480Z,98319.29
2018-12-19T15:18:51.631Z,98322.88
2018-12-19T15:21:20.335Z,98328.31
2018-12-19T15:23:48.406Z,98333.61
2018-12-19T15:26:17.015Z,98336.30
2018-12-19T15:28:45.122Z,98341.39
2018-12-19T15:31:13.214Z,98338.64
2018-12-19T15:33:41.295Z,98342.95
2018-12-19T15:36:09.479Z,98350.20
2018-12-19T15:38:37.555Z,98357.86
2018-12-19T15:41:05.624Z,98361.78
2018-12-19T15:43:33.711Z,98366.53
2018-12-19T15:46:01.750Z,98359.42
2018-12-19T15:48:29.790Z,98350.86
2018-12-19T15:50:57.887Z,98348.20
2018-12-19T15:53:25.967Z,98343.99
2018-12-19T15:55:54.259Z,98349.60
2018-12-19T15:58:22.334Z,98353.73
2018-12-19T16:00:50.422Z,98353.73
2018-12-19T16:03:18.575Z,98360.92
2018-12-19T16:05:46.655Z,98358.23
2018-12-19T16:08:14.715Z,98358.39
2018-12-19T16:10:42.787Z,98358.60
2018-12-19T16:13:11.246Z,98360.11
2018-12-19T16:15:39.326Z,98357.92
2018-12-19T16:18:07.411Z,98352.23
2018-12-19T16:20:35.450Z,98347.39
2018-12-19T16:23:03.574Z,98349.44
2018-12-19T16:25:31.655Z,98355.02
2018-12-19T16:27:59.690Z,98353.33
2018-12-19T16:30:27.870Z,98344.77
2018-12-19T16:32:55.938Z,98348.70
2018-12-19T16:35:24.026Z,98348.56
2018-12-19T16:37:52.165Z,98346.08
2018-12-19T16:40:20.259Z,98348.84
2018-12-19T16:42:48.310Z,98340.89
2018-12-19T16:45:16.727Z,98338.63
2018-12-19T16:47:44.987Z,98343.32
2018-12-19T16:50:13.035Z,98357.80
2018-12-19T16:52:41.110Z,98352.52
2018-12-19T16:55:09.481Z,98354.06
2018-12-19T16:57:37.534Z,98358.75
2018-12-19T17:00:08.456Z,98355.03
2018-12-19T17:02:36.574Z,98364.97
2018-12-19T17:05:06.527Z,98375.34
2018-12-19T17:07:34.596Z,98369.38
2018-12-19T17:10:02.742Z,98359.19
2018-12-19T17:12:30.798Z,98362.64
2018-12-19T17:14:58.879Z,98354.60
2018-12-19T17:17:27.134Z,98360.52
2018-12-19T17:19:55.334Z,98356.30
2018-12-19T17:22:23.415Z,98360.86
2018-12-19T17:24:51.478Z,98362.27
2018-12-19T17:27:19.567Z,98362.08
2018-12-19T17:29:47.607Z,98360.17
2018-12-19T17:32:15.758Z,98350.47
2018-12-19T17:34:43.851Z,98350.53
2018-12-19T17:37:12.318Z,98347.30
2018-12-19T17:39:40.407Z,98351.06
2018-12-19T17:42:08.478Z,98353.22
2018-12-19T17:44:36.571Z,98341.00
2018-12-19T17:47:04.641Z,98341.28
2018-12-19T17:49:32.694Z,98339.63
2018-12-19T17:52:00.752Z,98335.05
2018-12-19T17:54:28.911Z,98330.88
2018-12-19T17:56:56.983Z,98328.61
2018-12-19T17:59:25.046Z,98321.78
2018-12-19T18:01:53.243Z,98320.36
2018-12-19T18:04:21.299Z,98323.03
2018-12-19T18:06:49.351Z,98317.64
2018-12-19T18:09:17.415Z,98318.70
2018-12-19T18:11:45.559Z,98322.78
2018-12-19T18:14:13.939Z,98319.86
2018-12-19T18:16:41.987Z,98323.02
2018-12-19T18:19:10.155Z,98319.08
2018-12-19T18:21:38.359Z,98324.38
2018-12-19T18:24:06.424Z,98322.53
2018-12-19T18:26:34.503Z,98321.81
2018-12-19T18:29:02.583Z,98331.13
2018-12-19T18:31:30.618Z,98325.80
2018-12-19T18:33:58.696Z,98329.25
2018-12-19T18:36:26.990Z,98325.27
2018-12-19T18:38:55.064Z,98327.86
2018-12-19T18:41:23.098Z,98333.34
2018-12-19T18:43:51.174Z,98331.94
2018-12-19T18:46:19.225Z,98326.84
2018-12-19T18:48:47.310Z,98327.66
2018-12-19T18:51:15.399Z,98336.59
2018-12-19T18:53:43.475Z,98337.09
2018-12-19T18:56:11.520Z,98344.33
2018-12-19T18:58:40.022Z,98348.53
2018-12-19T19:01:08.347Z,98347.41
2018-12-19T19:03:36.474Z,98340.42
2018-12-19T19:06:04.683Z,98335.32
2018-12-19T19:08:32.791Z,98337.75
2018-12-19T19:11:00.891Z,98330.89
2018-12-19T19:13:28.966Z,98328.09
2018-12-19T19:15:57.165Z,98325.55
2018-12-19T19:18:25.595Z,98328.38
2018-12-19T19:20:53.878Z,98328.07
2018-12-19T19:23:21.910Z,98325.88
2018-12-19T19:25:49.950Z,98323.68
2018-12-19T19:28:18.018Z,98318.33
2018-12-19T19:30:46.152Z,98324.48
2018-12-19T19:33:14.251Z,98318.41
2018-12-19T19:35:42.347Z,98317.69
2018-12-19T19:38:10.394Z,98324.14
2018-12-19T19:40:38.462Z,98319.47
2018-12-19T19:43:06.523Z,98324.83
2018-12-19T19:45:34.646Z,98322.56
2018-12-19T19:48:02.886Z,98325.93
2018-12-19T19:50:30.943Z,98319.05
2018-12-19T19:52:59.051Z,98312.03
2018-12-19T19:55:27.098Z,98307.83
2018-12-19T19:57:55.276Z,98308.37
2018-12-19T20:00:25.290Z,98318.32
2018-12-19T20:02:53.347Z,98310.38
2018-12-19T20:05:21.527Z,98314.29
2018-12-19T20:07:49.599Z,98318.97
2018-12-19T20:10:17.646Z,98323.34
2018-12-19T20:12:45.746Z,98327.77
2018-12-19T20:15:13.850Z,98335.25
2018-12-19T20:17:41.993Z,98343.69
2018-12-19T20:20:10.047Z,98335.31
2018-12-19T20:22:38.100Z,98329.81
2018-12-19T20:25:06.335Z,98320.69
2018-12-19T20:27:34.402Z,98320.47
2018-12-19T20:30:02.735Z,98318.84
2018-12-19T20:32:30.770Z,98316.58
2018-12-19T20:34:58.824Z,98316.76
2018-12-19T20:37:26.979Z,98313.92
2018-12-19T20:39:55.051Z,98319.02
2018-12-19T20:42:23.143Z,98311.78
2018-12-19T20:44:51.206Z,98314.39
2018-12-19T20:47:19.254Z,98310.80
2018-12-19T20:49:47.463Z,98317.60
2018-12-19T20:52:15.526Z,98312.08
2018-12-19T20:54:43.807Z,98313.36
2018-12-19T20:57:11.879Z,98311.55
2018-12-19T20:59:39.965Z,98310.42
2018-12-19T21:02:08.119Z,98306.67
2018-12-19T21:04:36.282Z,98305.36
2018-12-19T21:07:04.575Z,98301.37
2018-12-19T21:09:32.654Z,98303.27
2018-12-19T21:12:01.129Z,98300.09
2018-12-19T21:14:29.203Z,98301.13
2018-12-19T21:16:59.210Z,98301.58
2018-12-19T21:19:27.307Z,98297.23
2018-12-19T21:21:55.349Z,98305.61
2018-12-19T21:24:24.615Z,98308.08
2018-12-19T21:26:52.727Z,98309.66
2018-12-19T21:29:20.802Z,98304.50
2018-12-19T21:31:49.220Z,98303.42
2018-12-19T21:34:17.263Z,98301.95
2018-12-19T21:36:45.320Z,98305.23
2018-12-19T21:39:13.425Z,98311.77
2018-12-19T21:41:41.671Z,98317.83
2018-12-19T21:44:09.745Z,98314.38
2018-12-19T21:46:37.884Z,98314.89
2018-12-19T21:49:06.078Z,98307.88
2018-12-19T21:51:34.250Z,98319.84
2018-12-19T21:54:02.385Z,98320.03
2018-12-19T21:56:30.551Z,98319.10
2018-12-19T21:58:58.606Z,98317.00
2018-12-19T22:01:26.731Z,98315.70
2018-12-19T22:03:54.846Z,98319.55
2018-12-19T22:06:23.060Z,98320.28
2018-12-19T22:08:52.186Z,98323.50
2018-12-19T22:11:20.283Z,98317.97
2018-12-19T22:13:48.333Z,98331.63
2018-12-19T22:16:18.495Z,98330.90
2018-12-19T22:18:47.286Z,98328.16
2018-12-19T22:21:15.726Z,98324.36
2018-12-19T22:23:43.794Z,98324.86
2018-12-19T22:26:11.920Z,98333.59
2018-12-19T22:28:40.024Z,98331.92
2018-12-19T22:31:08.306Z,98334.05
2018-12-19T22:33:36.580Z,98338.52
2018-12-19T22:36:04.716Z,98344.16
2018-12-19T22:38:32.850Z,98340.81
2018-12-19T22:41:01.044Z,98340.69
2018-12-19T22:43:29.186Z,98335.53
2018-12-19T22:45:57.801Z,98331.71
2018-12-19T22:48:25.936Z,98327.42
2018-12-19T22:50:54.066Z,98334.53
2018-12-19T22:53:22.150Z,98333.25
2018-12-19T22:55:50.287Z,98333.19
2018-12-19T22:58:18.529Z,98328.01
2018-12-19T23:00:51.925Z,98323.69
2018-12-19T23:03:21.912Z,98321.82
2018-12-19T23:05:50.009Z,98318.70
2018-12-19T23:08:18.906Z,98316.95
2018-12-19T23:10:46.982Z,98312.12
2018-12-19T23:13:15.432Z,98315.58
2018-12-19T23:15:43.504Z,98315.80
2018-12-19T23:18:13.720Z,98311.52
2018-12-19T23:20:41.803Z,98310.27
2018-12-19T23:23:09.893Z,98311.91
2018-12-19T23:25:38.841Z,98310.13
2018-12-19T23:28:06.942Z,98315.09
2018-12-19T23:30:35.146Z,98309.35
2018-12-19T23:33:03.420Z,98309.47
2018-12-19T23:35:31.898Z,98306.80
2018-12-19T23:38:00.054Z,98303.97
2018-12-19T23:40:28.142Z,98310.61
2018-12-19T23:42:56.183Z,98310.50
2018-12-19T23:45:24.409Z,98309.02
2018-12-19T23:47:52.582Z,98308.95
2018-12-19T23:50:20.882Z,98306.47
2018-12-19T23:52:49.114Z,98306.80
2018-12-19T23:55:17.574Z,98300.77
2018-12-19T23:57:45.647Z,98311.73
